createdAt,value
2024-04-03T00:00:16.178Z,84.84
2024-04-03T00:00:46.597Z,84.84
2024-04-03T00:01:17.559Z,84.64
2024-04-03T00:01:48.509Z,84.33
2024-04-03T00:02:19.441Z,84.33
2024-04-03T00:02:50.358Z,83.87
2024-04-03T00:03:21.279Z,83.81
2024-04-03T00:03:52.208Z,83.40
2024-04-03T00:04:54.063Z,83.50
2024-04-03T00:05:23.649Z,83.91
2024-04-03T00:05:55.569Z,84.12
2024-04-03T00:06:26.503Z,84.01
2024-04-03T00:06:57.418Z,84.12
2024-04-03T00:07:28.419Z,84.43
2024-04-03T00:07:59.312Z,84.64
2024-04-03T00:08:30.297Z,84.84
2024-04-03T00:09:01.210Z,84.84
2024-04-03T00:09:32.120Z,84.64
2024-04-03T00:10:03.797Z,84.43
2024-04-03T00:10:36.005Z,84.22
2024-04-03T00:11:04.722Z,83.91
2024-04-03T00:11:35.664Z,83.61
2024-04-03T00:12:06.641Z,83.61
2024-04-03T00:12:36.175Z,83.36
2024-04-03T00:13:08.155Z,83.67
2024-04-03T00:13:39.064Z,83.56
2024-04-03T00:14:09.979Z,83.15
2024-04-03T00:14:40.918Z,83.15
2024-04-03T00:15:11.823Z,82.74
2024-04-03T00:15:42.774Z,82.64
2024-04-03T00:16:13.693Z,82.74
2024-04-03T00:16:44.607Z,83.15
2024-04-03T00:17:46.452Z,82.64
2024-04-03T00:18:17.402Z,82.64
2024-04-03T00:18:48.303Z,82.84
2024-04-03T00:19:19.240Z,83.05
2024-04-03T00:19:52.280Z,83.36
2024-04-03T00:20:20.958Z,83.25
2024-04-03T00:20:51.862Z,82.64
2024-04-03T00:21:22.798Z,82.22
2024-04-03T00:21:53.742Z,82.12
2024-04-03T00:22:24.654Z,82.32
2024-04-03T00:22:55.593Z,82.84
2024-04-03T00:23:26.545Z,83.25
2024-04-03T00:23:57.481Z,83.36
2024-04-03T00:24:28.447Z,83.36
2024-04-03T00:24:59.398Z,83.15
2024-04-03T00:25:30.346Z,83.05
2024-04-03T00:26:01.376Z,83.36
2024-04-03T00:26:32.270Z,83.15
2024-04-03T00:27:03.205Z,83.05
2024-04-03T00:27:34.123Z,82.95
2024-04-03T00:28:05.047Z,83.36
2024-04-03T00:28:35.999Z,83.40
2024-04-03T00:29:06.961Z,83.71
2024-04-03T00:29:37.905Z,83.40
2024-04-03T00:30:08.831Z,82.98
2024-04-03T00:30:39.774Z,82.98
2024-04-03T00:31:10.709Z,83.29
2024-04-03T00:31:41.636Z,83.91
2024-04-03T00:32:12.548Z,84.16
2024-04-03T00:32:43.482Z,84.06
2024-04-03T00:33:14.423Z,83.75
2024-04-03T00:33:45.333Z,83.91
2024-04-03T00:34:16.361Z,84.01
2024-04-03T00:34:46.790Z,83.91
2024-04-03T00:35:17.683Z,83.29
2024-04-03T00:35:48.597Z,83.09
2024-04-03T00:36:19.514Z,82.88
2024-04-03T00:36:50.443Z,82.67
2024-04-03T00:37:21.363Z,82.98
2024-04-03T00:37:52.269Z,82.98
2024-04-03T00:38:23.212Z,82.98
2024-04-03T00:38:54.153Z,83.19
2024-04-03T00:39:25.119Z,83.64
2024-04-03T00:39:56.038Z,83.75
2024-04-03T00:40:26.984Z,83.75
2024-04-03T00:40:57.924Z,83.64
2024-04-03T00:41:28.830Z,83.95
2024-04-03T00:41:59.735Z,83.85
2024-04-03T00:42:30.649Z,83.54
2024-04-03T00:43:01.563Z,83.44
2024-04-03T00:43:32.475Z,83.33
2024-04-03T00:44:03.419Z,83.12
2024-04-03T00:44:34.535Z,83.12
2024-04-03T00:45:04.951Z,83.23
2024-04-03T00:45:35.886Z,83.54
2024-04-03T00:46:06.810Z,84.06
2024-04-03T00:46:37.728Z,83.95
2024-04-03T00:47:08.654Z,83.78
2024-04-03T00:47:39.579Z,83.89
2024-04-03T00:48:10.509Z,84.09
2024-04-03T00:48:41.418Z,84.30
2024-04-03T00:49:12.354Z,84.92
2024-04-03T00:49:43.301Z,84.92
2024-04-03T00:50:14.230Z,84.82
2024-04-03T00:50:45.136Z,84.51
2024-04-03T00:51:16.062Z,84.61
2024-04-03T00:51:47.000Z,84.92
2024-04-03T00:52:48.832Z,85.24
2024-04-03T00:53:19.638Z,85.13
2024-04-03T00:53:50.590Z,84.92
2024-04-03T00:54:21.495Z,84.92
2024-04-03T00:54:52.422Z,85.03
2024-04-03T00:55:23.342Z,84.51
2024-04-03T00:55:54.267Z,84.41
2024-04-03T00:56:25.196Z,84.30
2024-04-03T00:56:54.706Z,84.61
2024-04-03T00:57:26.619Z,84.51
2024-04-03T00:58:01.168Z,84.72
2024-04-03T00:58:28.546Z,84.92
2024-04-03T00:58:58.993Z,85.03
2024-04-03T00:59:28.549Z,85.13
2024-04-03T01:00:00.489Z,85.24
2024-04-03T01:00:31.420Z,85.24
2024-04-03T01:01:02.327Z,85.24
2024-04-03T01:01:33.237Z,85.34
2024-04-03T01:02:04.146Z,85.44
2024-04-03T01:02:35.096Z,85.13
2024-04-03T01:03:06.019Z,85.13
2024-04-03T01:03:36.936Z,85.34
2024-04-03T01:04:07.848Z,85.03
2024-04-03T01:04:38.761Z,85.03
2024-04-03T01:05:09.676Z,84.82
2024-04-03T01:05:40.630Z,84.51
2024-04-03T01:06:11.543Z,84.41
2024-04-03T01:06:42.492Z,84.09
2024-04-03T01:07:13.414Z,83.99
2024-04-03T01:07:42.928Z,83.68
2024-04-03T01:08:14.877Z,83.37
2024-04-03T01:08:45.803Z,83.16
2024-04-03T01:09:16.713Z,83.58
2024-04-03T01:09:47.632Z,83.58
2024-04-03T01:10:18.553Z,83.37
2024-04-03T01:10:49.505Z,83.47
2024-04-03T01:11:20.466Z,83.58
2024-04-03T01:11:51.395Z,83.26
2024-04-03T01:12:21.039Z,83.37
2024-04-03T01:12:52.975Z,83.47
2024-04-03T01:13:23.908Z,83.89
2024-04-03T01:13:54.812Z,84.51
2024-04-03T01:14:25.739Z,84.61
2024-04-03T01:14:56.646Z,84.72
2024-04-03T01:15:26.181Z,84.61
2024-04-03T01:15:58.387Z,84.61
2024-04-03T01:16:28.869Z,84.61
2024-04-03T01:16:59.781Z,84.51
2024-04-03T01:17:30.763Z,84.20
2024-04-03T01:18:01.705Z,83.89
2024-04-03T01:18:32.655Z,84.51
2024-04-03T01:19:03.561Z,84.30
2024-04-03T01:19:33.061Z,84.41
2024-04-03T01:20:04.992Z,84.51
2024-04-03T01:20:35.920Z,84.61
2024-04-03T01:21:06.834Z,84.75
2024-04-03T01:21:37.775Z,84.96
2024-04-03T01:22:39.563Z,85.17
2024-04-03T01:23:10.541Z,85.27
2024-04-03T01:23:41.498Z,85.48
2024-04-03T01:24:12.272Z,85.38
2024-04-03T01:24:43.199Z,84.92
2024-04-03T01:25:14.142Z,84.61
2024-04-03T01:25:52.537Z,84.30
2024-04-03T01:26:15.914Z,83.99
2024-04-03T01:26:45.444Z,83.99
2024-04-03T01:27:17.369Z,84.09
2024-04-03T01:27:48.272Z,83.99
2024-04-03T01:28:19.173Z,84.34
2024-04-03T01:28:50.108Z,84.55
2024-04-03T01:29:21.023Z,84.65
2024-04-03T01:29:51.940Z,84.75
2024-04-03T01:30:22.435Z,85.06
2024-04-03T01:30:52.090Z,85.27
2024-04-03T01:31:24.071Z,85.06
2024-04-03T01:31:53.636Z,84.55
2024-04-03T01:32:25.584Z,84.20
2024-04-03T01:32:56.513Z,84.55
2024-04-03T01:33:27.450Z,85.06
2024-04-03T01:33:57.963Z,85.17
2024-04-03T01:34:28.940Z,84.96
2024-04-03T01:34:59.877Z,84.75
2024-04-03T01:35:30.785Z,84.96
2024-04-03T01:36:01.723Z,85.06
2024-04-03T01:36:31.539Z,85.17
2024-04-03T01:37:02.963Z,85.06
2024-04-03T01:37:33.475Z,85.17
2024-04-03T01:38:04.392Z,85.27
2024-04-03T01:38:35.299Z,85.27
2024-04-03T01:39:06.225Z,85.27
2024-04-03T01:39:37.179Z,85.06
2024-04-03T01:40:08.092Z,84.96
2024-04-03T01:40:39.000Z,84.86
2024-04-03T01:41:10.007Z,84.65
2024-04-03T01:41:40.957Z,84.55
2024-04-03T01:42:11.888Z,84.75
2024-04-03T01:42:42.823Z,84.55
2024-04-03T01:43:13.735Z,84.23
2024-04-03T01:43:44.705Z,84.13
2024-04-03T01:44:15.653Z,84.34
2024-04-03T01:44:46.562Z,84.96
2024-04-03T01:45:17.468Z,85.27
2024-04-03T01:45:47.966Z,85.06
2024-04-03T01:46:18.982Z,85.06
2024-04-03T01:46:49.392Z,85.17
2024-04-03T01:47:20.461Z,85.17
2024-04-03T01:47:50.870Z,84.75
2024-04-03T01:48:21.929Z,84.75
2024-04-03T01:48:52.322Z,84.44
2024-04-03T01:49:23.305Z,84.23
2024-04-03T01:49:54.239Z,84.13
2024-04-03T01:50:25.332Z,84.44
2024-04-03T01:50:55.752Z,84.72
2024-04-03T01:51:26.664Z,84.82
2024-04-03T01:51:57.567Z,84.51
2024-04-03T01:52:28.508Z,84.20
2024-04-03T01:52:59.401Z,83.99
2024-04-03T01:53:30.321Z,83.78
2024-04-03T01:54:01.252Z,84.20
2024-04-03T01:54:32.247Z,84.41
2024-04-03T01:55:03.174Z,84.61
2024-04-03T01:55:34.116Z,84.51
2024-04-03T01:56:05.031Z,84.72
2024-04-03T01:56:34.631Z,84.96
2024-04-03T01:57:06.548Z,85.06
2024-04-03T01:57:37.491Z,85.06
2024-04-03T01:58:08.413Z,85.17
2024-04-03T01:58:39.344Z,85.27
2024-04-03T01:59:09.825Z,85.38
2024-04-03T01:59:40.754Z,85.79
2024-04-03T02:00:11.656Z,86.00
2024-04-03T02:00:42.595Z,86.10
2024-04-03T02:01:12.603Z,86.00
2024-04-03T02:01:44.419Z,86.00
2024-04-03T02:02:15.390Z,85.69
2024-04-03T02:02:46.539Z,85.38
2024-04-03T02:03:18.034Z,85.38
2024-04-03T02:03:47.139Z,85.79
2024-04-03T02:04:19.096Z,86.10
2024-04-03T02:04:50.034Z,86.52
2024-04-03T02:05:21.003Z,86.72
2024-04-03T02:05:51.458Z,86.41
2024-04-03T02:06:22.473Z,86.00
2024-04-03T02:06:53.404Z,85.75
2024-04-03T02:07:24.056Z,85.55
2024-04-03T02:07:54.482Z,85.44
2024-04-03T02:08:25.546Z,85.34
2024-04-03T02:08:55.956Z,85.34
2024-04-03T02:09:26.804Z,85.86
2024-04-03T02:09:57.706Z,86.07
2024-04-03T02:10:28.636Z,86.41
2024-04-03T02:10:58.180Z,86.72
2024-04-03T02:11:30.178Z,86.52
2024-04-03T02:12:00.202Z,86.10
2024-04-03T02:12:32.073Z,86.21
2024-04-03T02:13:03.011Z,86.45
2024-04-03T02:13:33.948Z,86.76
2024-04-03T02:14:04.482Z,87.07
2024-04-03T02:14:35.404Z,86.97
2024-04-03T02:15:04.912Z,86.97
2024-04-03T02:15:36.882Z,86.76
2024-04-03T02:16:07.842Z,86.55
2024-04-03T02:16:38.796Z,86.76
2024-04-03T02:17:09.713Z,87.07
2024-04-03T02:17:40.533Z,87.07
2024-04-03T02:18:11.559Z,86.76
2024-04-03T02:18:42.463Z,86.87
2024-04-03T02:19:13.441Z,86.97
2024-04-03T02:19:44.359Z,87.18
2024-04-03T02:20:15.384Z,87.49
2024-04-03T02:20:44.915Z,87.49
2024-04-03T02:21:16.454Z,87.38
2024-04-03T02:21:47.388Z,87.38
2024-04-03T02:22:18.315Z,87.49
2024-04-03T02:22:49.241Z,87.43
2024-04-03T02:23:28.822Z,87.43
2024-04-03T02:23:50.643Z,87.43
2024-04-03T02:24:21.539Z,87.74
2024-04-03T02:24:52.402Z,87.74
2024-04-03T02:25:23.328Z,87.84
2024-04-03T02:25:54.254Z,87.84
2024-04-03T02:26:25.205Z,87.84
2024-04-03T02:26:54.802Z,87.95
2024-04-03T02:27:26.312Z,87.95
2024-04-03T02:27:57.499Z,87.74
2024-04-03T02:28:27.928Z,87.95
2024-04-03T02:28:59.095Z,88.15
2024-04-03T02:29:29.493Z,88.36
2024-04-03T02:30:00.511Z,88.26
2024-04-03T02:30:31.425Z,88.26
2024-04-03T02:31:01.918Z,88.09
2024-04-03T02:31:32.847Z,88.26
2024-04-03T02:32:03.755Z,88.20
2024-04-03T02:32:34.691Z,88.30
2024-04-03T02:33:05.639Z,88.46
2024-04-03T02:33:35.538Z,88.26
2024-04-03T02:34:07.490Z,88.26
2024-04-03T02:34:38.009Z,88.36
2024-04-03T02:35:08.925Z,88.26
2024-04-03T02:36:10.773Z,87.74
2024-04-03T02:36:41.271Z,87.63
2024-04-03T02:37:12.186Z,87.32
2024-04-03T02:37:43.192Z,87.12
2024-04-03T02:38:14.129Z,87.32
2024-04-03T02:38:45.045Z,87.32
2024-04-03T02:39:16.092Z,87.01
2024-04-03T02:39:47.003Z,86.91
2024-04-03T02:40:17.942Z,86.80
2024-04-03T02:40:48.852Z,86.49
2024-04-03T02:41:19.362Z,86.70
2024-04-03T02:41:50.302Z,86.91
2024-04-03T02:42:21.194Z,86.80
2024-04-03T02:42:52.141Z,86.91
2024-04-03T02:43:23.072Z,87.12
2024-04-03T02:43:53.981Z,87.12
2024-04-03T02:44:24.901Z,87.01
2024-04-03T02:44:55.828Z,87.01
2024-04-03T02:45:25.758Z,87.12
2024-04-03T02:45:57.700Z,87.01
2024-04-03T02:46:28.677Z,86.80
2024-04-03T02:46:58.192Z,86.80
2024-04-03T02:47:30.211Z,86.91
2024-04-03T02:47:59.829Z,86.91
2024-04-03T02:48:31.743Z,86.80
2024-04-03T02:49:02.662Z,86.80
2024-04-03T02:49:33.601Z,86.70
2024-04-03T02:50:04.526Z,86.80
2024-04-03T02:50:34.477Z,87.01
2024-04-03T02:51:06.133Z,86.80
2024-04-03T02:51:37.100Z,86.49
2024-04-03T02:52:08.021Z,86.18
2024-04-03T02:52:38.952Z,86.15
2024-04-03T02:53:40.763Z,85.73
2024-04-03T02:54:11.672Z,85.31
2024-04-03T02:54:42.595Z,85.63
2024-04-03T02:55:14.108Z,85.31
2024-04-03T02:55:44.287Z,85.11
2024-04-03T02:56:15.183Z,85.11
2024-04-03T02:56:44.701Z,84.80
2024-04-03T02:57:16.630Z,84.90
2024-04-03T02:57:47.553Z,85.00
2024-04-03T02:58:18.473Z,85.00
2024-04-03T02:58:49.403Z,84.69
2024-04-03T02:59:20.308Z,84.59
2024-04-03T02:59:51.217Z,84.69
2024-04-03T03:00:22.215Z,84.59
2024-04-03T03:00:52.072Z,84.48
2024-04-03T03:01:23.981Z,84.80
2024-04-03T03:01:53.496Z,85.42
2024-04-03T03:02:25.440Z,85.63
2024-04-03T03:02:55.030Z,85.63
2024-04-03T03:03:26.932Z,85.52
2024-04-03T03:03:57.863Z,85.52
2024-04-03T03:04:28.802Z,85.31
2024-04-03T03:04:59.758Z,85.31
2024-04-03T03:05:31.946Z,85.21
2024-04-03T03:06:01.498Z,85.42
2024-04-03T03:06:32.430Z,85.73
2024-04-03T03:07:03.368Z,86.15
2024-04-03T03:07:34.320Z,86.35
2024-04-03T03:08:03.875Z,86.45
2024-04-03T03:08:35.828Z,86.66
2024-04-03T03:09:06.742Z,86.35
2024-04-03T03:09:37.698Z,86.15
2024-04-03T03:10:08.619Z,86.04
2024-04-03T03:10:39.554Z,86.25
2024-04-03T03:11:10.456Z,86.45
2024-04-03T03:11:41.390Z,86.55
2024-04-03T03:12:12.308Z,86.66
2024-04-03T03:12:43.233Z,87.18
2024-04-03T03:13:14.155Z,87.38
2024-04-03T03:13:45.097Z,87.59
2024-04-03T03:14:16.031Z,87.59
2024-04-03T03:14:46.979Z,87.07
2024-04-03T03:15:17.899Z,86.97
2024-04-03T03:15:48.888Z,87.28
2024-04-03T03:16:19.796Z,87.32
2024-04-03T03:16:49.416Z,87.12
2024-04-03T03:17:21.368Z,87.43
2024-04-03T03:17:52.283Z,87.22
2024-04-03T03:18:23.218Z,87.53
2024-04-03T03:18:53.693Z,87.74
2024-04-03T03:19:24.615Z,87.95
2024-04-03T03:19:55.548Z,87.95
2024-04-03T03:20:26.443Z,88.05
2024-04-03T03:20:57.351Z,88.05
2024-04-03T03:21:28.272Z,87.95
2024-04-03T03:21:59.200Z,88.05
2024-04-03T03:22:30.197Z,88.15
2024-04-03T03:22:59.800Z,88.26
2024-04-03T03:23:31.782Z,88.46
2024-04-03T03:24:01.294Z,88.57
2024-04-03T03:24:32.806Z,88.46
2024-04-03T03:25:03.720Z,88.26
2024-04-03T03:25:34.670Z,88.26
2024-04-03T03:26:05.586Z,88.05
2024-04-03T03:26:36.519Z,88.15
2024-04-03T03:27:07.522Z,88.36
2024-04-03T03:27:38.475Z,88.46
2024-04-03T03:28:09.809Z,88.57
2024-04-03T03:28:39.806Z,88.21
2024-04-03T03:29:10.753Z,88.05
2024-04-03T03:29:41.666Z,87.95
2024-04-03T03:30:12.589Z,87.95
2024-04-03T03:30:43.486Z,87.70
2024-04-03T03:31:14.417Z,87.90
2024-04-03T03:31:45.325Z,88.11
2024-04-03T03:32:16.265Z,88.21
2024-04-03T03:32:48.053Z,88.11
2024-04-03T03:33:17.963Z,87.80
2024-04-03T03:33:49.531Z,87.80
2024-04-03T03:34:19.445Z,87.90
2024-04-03T03:34:50.044Z,88.21
2024-04-03T03:35:20.867Z,88.01
2024-04-03T03:35:51.802Z,87.80
2024-04-03T03:36:22.754Z,87.49
2024-04-03T03:36:53.700Z,87.59
2024-04-03T03:37:24.623Z,87.49
2024-04-03T03:37:55.541Z,87.70
2024-04-03T03:38:26.042Z,87.80
2024-04-03T03:38:59.571Z,87.70
2024-04-03T03:39:27.468Z,87.70
2024-04-03T03:39:58.512Z,87.90
2024-04-03T03:40:30.102Z,87.80
2024-04-03T03:41:30.742Z,88.21
2024-04-03T03:42:01.678Z,88.11
2024-04-03T03:42:32.609Z,87.80
2024-04-03T03:43:02.538Z,87.80
2024-04-03T03:43:34.444Z,88.11
2024-04-03T03:44:03.973Z,88.01
2024-04-03T03:44:35.893Z,88.11
2024-04-03T03:45:06.839Z,88.21
2024-04-03T03:45:37.764Z,88.21
2024-04-03T03:46:08.675Z,88.11
2024-04-03T03:46:39.601Z,87.80
2024-04-03T03:47:10.538Z,87.90
2024-04-03T03:47:41.472Z,88.21
2024-04-03T03:48:12.392Z,88.32
2024-04-03T03:48:43.301Z,88.11
2024-04-03T03:49:14.218Z,87.90
2024-04-03T03:49:45.116Z,87.49
2024-04-03T03:50:16.063Z,87.38
2024-04-03T03:50:47.000Z,87.66
2024-04-03T03:51:17.899Z,87.87
2024-04-03T03:51:48.804Z,87.38
2024-04-03T03:52:19.720Z,87.18
2024-04-03T03:52:50.686Z,87.07
2024-04-03T03:53:21.612Z,86.87
2024-04-03T03:53:52.583Z,87.28
2024-04-03T03:54:23.503Z,87.59
2024-04-03T03:54:54.441Z,87.59
2024-04-03T03:55:25.350Z,87.59
2024-04-03T03:55:56.254Z,87.80
2024-04-03T03:56:29.517Z,87.80
2024-04-03T03:56:57.781Z,87.90
2024-04-03T03:57:28.795Z,87.97
2024-04-03T03:57:59.318Z,88.01
2024-04-03T03:58:30.254Z,87.90
2024-04-03T03:59:01.168Z,87.80
2024-04-03T03:59:32.107Z,87.59
2024-04-03T04:00:03.028Z,87.76
2024-04-03T04:00:34.026Z,87.87
2024-04-03T04:01:04.966Z,87.76
2024-04-03T04:01:35.885Z,87.87
2024-04-03T04:02:06.777Z,87.55
2024-04-03T04:02:37.696Z,87.24
2024-04-03T04:03:08.607Z,86.93
2024-04-03T04:03:39.534Z,86.72
2024-04-03T04:04:10.038Z,86.97
2024-04-03T04:04:40.977Z,87.18
2024-04-03T04:05:10.478Z,87.18
2024-04-03T04:05:42.424Z,87.28
2024-04-03T04:06:13.357Z,87.07
2024-04-03T04:06:42.878Z,87.07
2024-04-03T04:07:14.824Z,87.38
2024-04-03T04:07:45.750Z,87.70
2024-04-03T04:08:16.693Z,87.49
2024-04-03T04:08:47.215Z,87.38
2024-04-03T04:09:18.120Z,87.38
2024-04-03T04:09:49.116Z,87.70
2024-04-03T04:10:20.036Z,87.90
2024-04-03T04:10:51.108Z,87.80
2024-04-03T04:11:21.520Z,87.59
2024-04-03T04:11:51.353Z,87.49
2024-04-03T04:12:22.772Z,87.70
2024-04-03T04:12:53.708Z,87.80
2024-04-03T04:13:23.343Z,87.70
2024-04-03T04:13:55.296Z,87.63
2024-04-03T04:14:24.815Z,87.95
2024-04-03T04:14:56.747Z,88.11
2024-04-03T04:15:27.656Z,87.90
2024-04-03T04:15:58.579Z,87.80
2024-04-03T04:16:29.483Z,88.01
2024-04-03T04:16:59.346Z,88.01
2024-04-03T04:17:31.346Z,87.70
2024-04-03T04:18:01.813Z,87.80
2024-04-03T04:18:32.328Z,88.01
2024-04-03T04:19:03.205Z,88.01
2024-04-03T04:19:34.150Z,88.11
2024-04-03T04:20:04.647Z,87.90
2024-04-03T04:20:35.607Z,87.80
2024-04-03T04:21:06.498Z,87.80
2024-04-03T04:21:39.083Z,88.01
2024-04-03T04:22:08.054Z,87.80
2024-04-03T04:22:38.567Z,87.80
2024-04-03T04:23:09.430Z,87.70
2024-04-03T04:23:40.377Z,87.28
2024-04-03T04:24:42.110Z,87.70
2024-04-03T04:25:13.067Z,87.70
2024-04-03T04:25:42.613Z,87.70
2024-04-03T04:26:14.129Z,87.59
2024-04-03T04:26:44.994Z,87.84
2024-04-03T04:27:15.939Z,87.95
2024-04-03T04:27:45.553Z,88.15
2024-04-03T04:28:17.553Z,88.15
2024-04-03T04:28:47.302Z,88.15
2024-04-03T04:29:19.237Z,87.95
2024-04-03T04:30:19.963Z,87.95
2024-04-03T04:30:50.996Z,88.15
2024-04-03T04:31:22.945Z,88.15
2024-04-03T04:31:52.421Z,87.95
2024-04-03T04:32:24.388Z,88.05
2024-04-03T04:32:55.108Z,88.15
2024-04-03T04:33:25.981Z,88.36
2024-04-03T04:33:56.848Z,88.26
2024-04-03T04:35:00.901Z,88.36
2024-04-03T04:35:29.144Z,88.46
2024-04-03T04:36:00.013Z,88.15
2024-04-03T04:36:30.879Z,87.95
2024-04-03T04:37:01.770Z,88.15
2024-04-03T04:37:32.648Z,88.57
2024-04-03T04:38:03.528Z,88.67
2024-04-03T04:38:34.275Z,88.26
2024-04-03T04:39:05.126Z,88.46
2024-04-03T04:39:35.977Z,88.57
2024-04-03T04:40:06.835Z,88.88
2024-04-03T04:40:37.736Z,88.98
2024-04-03T04:41:08.600Z,88.98
2024-04-03T04:41:39.526Z,88.98
2024-04-03T04:42:10.389Z,88.98
2024-04-03T04:42:41.276Z,89.19
2024-04-03T04:43:12.146Z,89.09
2024-04-03T04:43:43.015Z,88.88
2024-04-03T04:44:13.869Z,88.78
2024-04-03T04:44:44.759Z,88.98
2024-04-03T04:45:15.638Z,89.19
2024-04-03T04:45:46.504Z,89.29
2024-04-03T04:46:17.393Z,89.09
2024-04-03T04:46:48.254Z,89.09
2024-04-03T04:47:50.002Z,88.78
2024-04-03T04:48:20.866Z,88.78
2024-04-03T04:48:51.744Z,88.88
2024-04-03T04:49:24.771Z,88.67
2024-04-03T04:49:53.637Z,88.46
2024-04-03T04:50:24.502Z,88.57
2024-04-03T04:50:55.441Z,88.67
2024-04-03T04:51:26.319Z,88.46
2024-04-03T04:51:57.181Z,88.67
2024-04-03T04:52:28.038Z,88.73
2024-04-03T04:52:58.901Z,88.84
2024-04-03T04:53:29.779Z,88.84
2024-04-03T04:54:00.633Z,88.42
2024-04-03T04:54:31.498Z,88.32
2024-04-03T04:55:02.367Z,88.42
2024-04-03T04:55:33.266Z,88.32
2024-04-03T04:56:04.143Z,88.11
2024-04-03T04:56:35.018Z,88.01
2024-04-03T04:57:05.880Z,88.21
2024-04-03T04:57:36.778Z,88.01
2024-04-03T04:58:08.526Z,88.11
2024-04-03T04:58:38.419Z,88.21
2024-04-03T04:59:09.326Z,88.42
2024-04-03T04:59:39.203Z,88.42
2024-04-03T05:00:41.908Z,88.01
2024-04-03T05:01:12.668Z,88.11
2024-04-03T05:01:43.649Z,88.21
2024-04-03T05:02:14.516Z,88.11
2024-04-03T05:02:45.410Z,88.11
2024-04-03T05:03:16.274Z,88.42
2024-04-03T05:03:47.364Z,88.53
2024-04-03T05:04:17.739Z,88.21
2024-04-03T05:04:48.631Z,88.11
2024-04-03T05:05:19.508Z,88.21
2024-04-03T05:05:50.439Z,88.11
2024-04-03T05:06:21.291Z,88.21
2024-04-03T05:06:52.160Z,88.11
2024-04-03T05:07:23.023Z,87.70
2024-04-03T05:07:53.924Z,87.80
2024-04-03T05:08:24.792Z,88.01
2024-04-03T05:08:55.683Z,88.01
2024-04-03T05:09:26.582Z,88.21
2024-04-03T05:09:57.521Z,88.01
2024-04-03T05:10:28.398Z,87.97
2024-04-03T05:10:59.311Z,88.07
2024-04-03T05:11:30.189Z,88.18
2024-04-03T05:12:01.037Z,88.28
2024-04-03T05:12:31.934Z,88.28
2024-04-03T05:13:02.790Z,88.07
2024-04-03T05:13:33.629Z,88.07
2024-04-03T05:14:04.477Z,88.07
2024-04-03T05:14:35.347Z,87.87
2024-04-03T05:15:05.328Z,87.76
2024-04-03T05:15:37.257Z,87.55
2024-04-03T05:16:08.114Z,87.45
2024-04-03T05:16:38.981Z,87.66
2024-04-03T05:17:10.391Z,87.66
2024-04-03T05:17:40.757Z,87.35
2024-04-03T05:18:11.617Z,87.24
2024-04-03T05:18:42.477Z,87.87
2024-04-03T05:19:13.319Z,88.07
2024-04-03T05:19:44.204Z,88.28
2024-04-03T05:20:15.112Z,88.39
2024-04-03T05:20:45.944Z,87.97
2024-04-03T05:21:16.896Z,87.82
2024-04-03T05:21:47.966Z,88.03
2024-04-03T05:22:18.312Z,88.34
2024-04-03T05:22:49.177Z,88.24
2024-04-03T05:23:19.936Z,88.13
2024-04-03T05:23:50.802Z,87.82
2024-04-03T05:24:21.663Z,87.41
2024-04-03T05:24:52.522Z,87.30
2024-04-03T05:25:23.399Z,87.20
2024-04-03T05:26:25.101Z,86.99
2024-04-03T05:26:55.972Z,86.79
2024-04-03T05:27:26.830Z,86.79
2024-04-03T05:27:57.894Z,86.99
2024-04-03T05:28:28.470Z,86.89
2024-04-03T05:28:58.896Z,86.79
2024-04-03T05:29:29.792Z,86.99
2024-04-03T05:30:00.639Z,87.10
2024-04-03T05:31:02.354Z,86.99
2024-04-03T05:31:32.322Z,86.79
2024-04-03T05:32:04.223Z,86.68
2024-04-03T05:32:35.113Z,86.79
2024-04-03T05:33:04.644Z,86.89
2024-04-03T05:33:36.502Z,86.99
2024-04-03T05:34:07.388Z,86.85
2024-04-03T05:34:37.372Z,86.65
2024-04-03T05:35:09.239Z,86.33
2024-04-03T05:35:40.121Z,86.23
2024-04-03T05:36:11.067Z,86.33
2024-04-03T05:36:41.923Z,86.33
2024-04-03T05:37:12.851Z,86.33
2024-04-03T05:37:43.702Z,86.33
2024-04-03T05:38:14.550Z,86.54
2024-04-03T05:38:45.428Z,86.33
2024-04-03T05:39:16.287Z,86.13
2024-04-03T05:39:47.143Z,86.23
2024-04-03T05:40:17.993Z,86.02
2024-04-03T05:40:58.207Z,86.02
2024-04-03T05:41:19.686Z,85.92
2024-04-03T05:41:50.550Z,85.92
2024-04-03T05:42:21.434Z,86.02
2024-04-03T05:42:52.348Z,86.02
2024-04-03T05:43:54.089Z,86.13
2024-04-03T05:44:24.904Z,86.23
2024-04-03T05:44:55.751Z,86.02
2024-04-03T05:45:26.672Z,86.02
2024-04-03T05:45:58.597Z,86.13
2024-04-03T05:46:27.156Z,86.02
2024-04-03T05:46:59.079Z,86.44
2024-04-03T05:47:29.962Z,86.50
2024-04-03T05:48:00.905Z,86.60
2024-04-03T05:48:31.792Z,86.40
2024-04-03T05:49:02.648Z,86.40
2024-04-03T05:49:33.542Z,86.60
2024-04-03T05:50:04.486Z,86.29
2024-04-03T05:50:35.345Z,85.99
2024-04-03T05:51:06.214Z,86.09
2024-04-03T05:51:37.178Z,85.99
2024-04-03T05:52:08.034Z,85.99
2024-04-03T05:52:38.973Z,86.19
2024-04-03T05:53:09.848Z,86.50
2024-04-03T05:53:40.704Z,86.50
2024-04-03T05:54:11.568Z,86.60
2024-04-03T05:54:42.448Z,86.71
2024-04-03T05:55:11.926Z,86.81
2024-04-03T05:55:43.772Z,86.60
2024-04-03T05:56:45.641Z,85.84
2024-04-03T05:57:15.606Z,85.32
2024-04-03T05:57:47.530Z,85.22
2024-04-03T05:58:18.393Z,85.32
2024-04-03T05:58:49.269Z,85.02
2024-04-03T05:59:19.050Z,85.11
2024-04-03T05:59:50.897Z,84.91
2024-04-03T06:00:21.775Z,85.11
2024-04-03T06:01:23.388Z,85.84
2024-04-03T06:01:54.231Z,85.42
2024-04-03T06:02:25.073Z,85.42
2024-04-03T06:02:56.007Z,85.32
2024-04-03T06:03:26.931Z,85.22
2024-04-03T06:03:57.289Z,85.32
2024-04-03T06:04:27.130Z,85.63
2024-04-03T06:04:59.103Z,85.84
2024-04-03T06:05:29.949Z,85.80
2024-04-03T06:06:00.813Z,85.80
2024-04-03T06:06:31.682Z,85.60
2024-04-03T06:07:02.563Z,85.28
2024-04-03T06:07:33.526Z,85.49
2024-04-03T06:08:03.937Z,85.60
2024-04-03T06:08:34.867Z,85.80
2024-04-03T06:09:05.732Z,85.91
2024-04-03T06:09:38.597Z,85.91
2024-04-03T06:10:07.571Z,85.70
2024-04-03T06:10:38.519Z,85.39
2024-04-03T06:11:09.425Z,85.28
2024-04-03T06:11:40.302Z,85.60
2024-04-03T06:12:11.179Z,85.70
2024-04-03T06:12:42.063Z,85.49
2024-04-03T06:13:12.939Z,85.39
2024-04-03T06:14:14.648Z,85.45
2024-04-03T06:14:44.477Z,85.35
2024-04-03T06:15:16.464Z,85.04
2024-04-03T06:15:47.330Z,85.04
2024-04-03T06:16:18.288Z,84.73
2024-04-03T06:16:49.189Z,84.21
2024-04-03T06:17:20.087Z,84.00
2024-04-03T06:17:51.056Z,83.90
2024-04-03T06:18:21.921Z,84.11
2024-04-03T06:18:52.784Z,84.21
2024-04-03T06:19:23.681Z,84.21
2024-04-03T06:19:54.564Z,84.21
2024-04-03T06:20:25.425Z,84.11
2024-04-03T06:20:56.358Z,84.00
2024-04-03T06:21:27.232Z,83.59
2024-04-03T06:21:57.198Z,83.49
2024-04-03T06:22:29.067Z,83.59
2024-04-03T06:22:59.951Z,83.80
2024-04-03T06:23:30.811Z,83.90
2024-04-03T06:24:01.682Z,83.90
2024-04-03T06:24:32.434Z,84.07
2024-04-03T06:25:03.295Z,84.17
2024-04-03T06:25:34.228Z,84.48
2024-04-03T06:26:05.127Z,84.89
2024-04-03T06:26:35.984Z,84.79
2024-04-03T06:27:06.834Z,84.59
2024-04-03T06:27:37.783Z,84.38
2024-04-03T06:28:08.686Z,84.17
2024-04-03T06:28:39.584Z,84.07
2024-04-03T06:29:10.424Z,84.07
2024-04-03T06:29:40.400Z,84.07
2024-04-03T06:30:12.293Z,84.48
2024-04-03T06:30:43.186Z,84.59
2024-04-03T06:31:14.066Z,84.69
2024-04-03T06:31:44.918Z,84.28
2024-04-03T06:32:15.806Z,83.65
2024-04-03T06:32:46.662Z,83.76
2024-04-03T06:33:17.537Z,83.86
2024-04-03T06:33:48.389Z,83.76
2024-04-03T06:34:19.248Z,84.07
2024-04-03T06:34:50.137Z,83.72
2024-04-03T06:35:21.010Z,83.62
2024-04-03T06:35:51.859Z,83.62
2024-04-03T06:36:22.708Z,83.62
2024-04-03T06:36:53.569Z,83.93
2024-04-03T06:37:24.462Z,84.03
2024-04-03T06:37:55.389Z,84.13
2024-04-03T06:38:26.255Z,84.23
2024-04-03T06:38:57.131Z,83.72
2024-04-03T06:39:58.842Z,83.41
2024-04-03T06:40:29.709Z,83.20
2024-04-03T06:41:00.572Z,83.31
2024-04-03T06:41:30.202Z,83.31
2024-04-03T06:42:02.185Z,82.86
2024-04-03T06:42:33.051Z,82.96
2024-04-03T06:43:03.903Z,83.17
2024-04-03T06:43:34.833Z,83.27
2024-04-03T06:44:05.697Z,83.27
2024-04-03T06:44:36.558Z,83.27
2024-04-03T06:45:07.412Z,83.27
2024-04-03T06:45:38.271Z,83.48
2024-04-03T06:46:09.244Z,83.68
2024-04-03T06:46:40.089Z,83.48
2024-04-03T06:47:10.959Z,83.37